sensor_id;sensor_type;location;lat;lon;timestamp;pressure;altitude;pressure_sealevel;temperature;humidity
19236;BME280;9752;54.270;12.470;2023-12-14T00:03:52;101432.53;;;3.23;100.00
19236;BME280;9752;54.270;12.470;2023-12-14T00:08:54;101434.03;;;3.21;100.00
19236;BME280;9752;54.270;12.470;2023-12-14T00:13:55;101457.84;;;3.20;100.00
19236;BME280;9752;54.270;12.470;2023-12-14T00:18:58;101464.19;;;3.23;100.00
19236;BME280;9752;54.270;12.470;2023-12-14T00:24:00;101470.81;;;3.21;100.00
19236;BME280;9752;54.270;12.470;2023-12-14T00:29:02;101471.72;;;3.22;100.00
19236;BME280;9752;54.270;12.470;2023-12-14T00:34:05;101482.56;;;3.19;100.00
19236;BME280;9752;54.270;12.470;2023-12-14T00:39:07;101491.31;;;3.21;100.00
19236;BME280;9752;54.270;12.470;2023-12-14T00:44:09;101487.38;;;3.16;100.00
19236;BME280;9752;54.270;12.470;2023-12-14T00:49:12;101493.88;;;3.21;100.00
19236;BME280;9752;54.270;12.470;2023-12-14T00:54:14;101489.78;;;3.15;100.00
19236;BME280;9752;54.270;12.470;2023-12-14T00:59:15;101497.19;;;3.11;100.00
19236;BME280;9752;54.270;12.470;2023-12-14T01:04:18;101503.09;;;3.19;100.00
19236;BME280;9752;54.270;12.470;2023-12-14T01:09:20;101593.53;;;3.18;100.00
19236;BME280;9752;54.270;12.470;2023-12-14T01:14:22;101605.03;;;3.22;100.00
19236;BME280;9752;54.270;12.470;2023-12-14T01:19:25;101622.38;;;3.24;100.00
19236;BME280;9752;54.270;12.470;2023-12-14T01:24:27;101624.78;;;3.23;100.00
19236;BME280;9752;54.270;12.470;2023-12-14T01:29:28;101641.06;;;3.23;100.00
19236;BME280;9752;54.270;12.470;2023-12-14T01:34:32;101657.69;;;3.27;100.00
19236;BME280;9752;54.270;12.470;2023-12-14T01:39:34;101659.81;;;3.31;100.00
19236;BME280;9752;54.270;12.470;2023-12-14T01:44:35;101661.03;;;3.35;100.00
19236;BME280;9752;54.270;12.470;2023-12-14T01:49:39;101660.88;;;3.33;100.00
19236;BME280;9752;54.270;12.470;2023-12-14T01:54:41;101659.38;;;3.35;100.00
19236;BME280;9752;54.270;12.470;2023-12-14T01:59:43;101655.00;;;3.34;100.00
19236;BME280;9752;54.270;12.470;2023-12-14T02:04:46;101643.25;;;3.36;100.00
19236;BME280;9752;54.270;12.470;2023-12-14T02:09:48;101649.59;;;3.40;100.00
19236;BME280;9752;54.270;12.470;2023-12-14T02:14:50;101645.94;;;3.38;100.00
19236;BME280;9752;54.270;12.470;2023-12-14T02:19:53;101640.53;;;3.35;100.00
19236;BME280;9752;54.270;12.470;2023-12-14T02:24:56;101601.34;;;3.44;100.00
19236;BME280;9752;54.270;12.470;2023-12-14T02:29:58;101598.03;;;3.45;100.00
19236;BME280;9752;54.270;12.470;2023-12-14T02:34:59;101602.56;;;3.48;100.00
19236;BME280;9752;54.270;12.470;2023-12-14T02:40:03;101601.03;;;3.50;100.00
19236;BME280;9752;54.270;12.470;2023-12-14T02:45:07;101595.91;;;3.50;100.00
19236;BME280;9752;54.270;12.470;2023-12-14T02:50:09;101582.34;;;3.51;100.00
19236;BME280;9752;54.270;12.470;2023-12-14T02:55:12;101563.19;;;3.47;100.00
19236;BME280;9752;54.270;12.470;2023-12-14T03:00:14;101561.81;;;3.42;100.00
19236;BME280;9752;54.270;12.470;2023-12-14T03:05:15;101554.72;;;3.48;100.00
19236;BME280;9752;54.270;12.470;2023-12-14T03:10:19;101559.97;;;3.41;100.00
19236;BME280;9752;54.270;12.470;2023-12-14T03:15:20;101555.78;;;3.42;100.00
19236;BME280;9752;54.270;12.470;2023-12-14T03:20:22;101566.94;;;3.42;100.00
19236;BME280;9752;54.270;12.470;2023-12-14T03:25:25;101576.59;;;3.45;100.00
19236;BME280;9752;54.270;12.470;2023-12-14T03:30:28;101577.50;;;3.45;100.00
19236;BME280;9752;54.270;12.470;2023-12-14T03:35:29;101577.34;;;3.44;100.00
19236;BME280;9752;54.270;12.470;2023-12-14T03:40:33;101580.50;;;3.41;100.00
19236;BME280;9752;54.270;12.470;2023-12-14T03:45:36;101598.03;;;3.45;100.00
19236;BME280;9752;54.270;12.470;2023-12-14T03:50:38;101599.66;;;3.36;100.00
19236;BME280;9752;54.270;12.470;2023-12-14T03:55:41;101609.47;;;3.40;100.00
19236;BME280;9752;54.270;12.470;2023-12-14T04:00:42;101609.63;;;3.42;100.00
19236;BME280;9752;54.270;12.470;2023-12-14T04:05:44;101620.31;;;3.38;100.00
19236;BME280;9752;54.270;12.470;2023-12-14T04:10:47;101638.69;;;3.33;100.00
19236;BME280;9752;54.270;12.470;2023-12-14T04:15:49;101644.16;;;3.37;100.00
19236;BME280;9752;54.270;12.470;2023-12-14T04:20:50;101645.94;;;3.29;100.00
19236;BME280;9752;54.270;12.470;2023-12-14T04:25:53;101644.09;;;3.28;100.00
19236;BME280;9752;54.270;12.470;2023-12-14T04:30:55;101655.13;;;3.27;100.00
19236;BME280;9752;54.270;12.470;2023-12-14T04:35:57;101660.41;;;3.28;100.00
19236;BME280;9752;54.270;12.470;2023-12-14T04:41:00;101662.66;;;3.25;100.00
19236;BME280;9752;54.270;12.470;2023-12-14T04:46:02;101676.69;;;3.29;100.00
19236;BME280;9752;54.270;12.470;2023-12-14T04:51:04;101683.00;;;3.24;100.00
19236;BME280;9752;54.270;12.470;2023-12-14T04:56:11;101687.38;;;3.25;100.00
19236;BME280;9752;54.270;12.470;2023-12-14T05:01:12;101694.31;;;3.26;100.00
19236;BME280;9752;54.270;12.470;2023-12-14T05:06:14;101699.50;;;3.35;100.00
19236;BME280;9752;54.270;12.470;2023-12-14T05:11:17;101705.38;;;3.33;100.00
19236;BME280;9752;54.270;12.470;2023-12-14T05:16:19;101711.41;;;3.34;100.00
19236;BME280;9752;54.270;12.470;2023-12-14T05:21:21;101713.66;;;3.31;100.00
19236;BME280;9752;54.270;12.470;2023-12-14T05:26:24;101721.00;;;3.28;100.00
19236;BME280;9752;54.270;12.470;2023-12-14T05:31:26;101723.44;;;3.26;100.00
19236;BME280;9752;54.270;12.470;2023-12-14T05:36:27;101726.75;;;3.25;100.00
19236;BME280;9752;54.270;12.470;2023-12-14T05:41:30;101743.34;;;3.29;100.00
19236;BME280;9752;54.270;12.470;2023-12-14T05:46:32;101748.91;;;3.25;100.00
19236;BME280;9752;54.270;12.470;2023-12-14T05:51:34;101762.81;;;3.27;100.00
19236;BME280;9752;54.270;12.470;2023-12-14T05:56:38;101764.59;;;3.28;100.00
19236;BME280;9752;54.270;12.470;2023-12-14T06:01:40;101768.75;;;3.19;100.00
19236;BME280;9752;54.270;12.470;2023-12-14T06:06:43;101781.28;;;3.16;100.00
19236;BME280;9752;54.270;12.470;2023-12-14T06:11:46;101782.78;;;3.13;100.00
19236;BME280;9752;54.270;12.470;2023-12-14T06:16:48;101790.47;;;3.13;100.00
19236;BME280;9752;54.270;12.470;2023-12-14T06:21:49;101803.84;;;3.11;100.00
19236;BME280;9752;54.270;12.470;2023-12-14T06:26:52;101813.53;;;3.13;100.00
19236;BME280;9752;54.270;12.470;2023-12-14T06:31:54;101823.03;;;3.15;100.00
19236;BME280;9752;54.270;12.470;2023-12-14T06:36:55;101830.25;;;3.10;100.00
19236;BME280;9752;54.270;12.470;2023-12-14T06:42:01;101822.91;;;3.13;100.00
19236;BME280;9752;54.270;12.470;2023-12-14T06:47:03;101825.75;;;3.16;100.00
19236;BME280;9752;54.270;12.470;2023-12-14T06:52:05;101828.28;;;3.07;100.00
19236;BME280;9752;54.270;12.470;2023-12-14T06:57:08;101842.72;;;3.07;100.00
19236;BME280;9752;54.270;12.470;2023-12-14T07:02:10;101852.06;;;3.06;100.00
19236;BME280;9752;54.270;12.470;2023-12-14T07:07:11;101870.19;;;3.08;100.00
19236;BME280;9752;54.270;12.470;2023-12-14T07:12:15;101873.16;;;3.04;100.00
19236;BME280;9752;54.270;12.470;2023-12-14T07:17:16;101891.75;;;3.10;100.00
19236;BME280;9752;54.270;12.470;2023-12-14T07:22:18;101900.53;;;3.12;100.00
19236;BME280;9752;54.270;12.470;2023-12-14T07:27:21;101911.50;;;3.11;100.00
19236;BME280;9752;54.270;12.470;2023-12-14T07:32:23;101922.09;;;3.14;100.00
19236;BME280;9752;54.270;12.470;2023-12-14T07:37:24;101930.69;;;3.15;100.00
19236;BME280;9752;54.270;12.470;2023-12-14T07:42:27;101930.56;;;3.13;100.00
19236;BME280;9752;54.270;12.470;2023-12-14T07:47:29;101939.88;;;3.12;100.00
19236;BME280;9752;54.270;12.470;2023-12-14T07:52:31;101953.03;;;3.16;100.00
19236;BME280;9752;54.270;12.470;2023-12-14T07:57:34;101962.47;;;3.08;100.00
19236;BME280;9752;54.270;12.470;2023-12-14T08:02:35;101985.34;;;3.06;100.00
19236;BME280;9752;54.270;12.470;2023-12-14T08:07:37;101997.09;;;3.04;100.00
19236;BME280;9752;54.270;12.470;2023-12-14T08:12:40;102002.94;;;3.03;100.00
19236;BME280;9752;54.270;12.470;2023-12-14T08:17:42;102012.13;;;3.01;100.00
19236;BME280;9752;54.270;12.470;2023-12-14T08:22:44;102021.66;;;3.02;100.00
19236;BME280;9752;54.270;12.470;2023-12-14T08:27:47;102033.00;;;3.04;100.00
19236;BME280;9752;54.270;12.470;2023-12-14T08:32:48;102038.69;;;3.02;100.00
19236;BME280;9752;54.270;12.470;2023-12-14T08:37:50;102124.91;;;3.01;100.00
19236;BME280;9752;54.270;12.470;2023-12-14T08:42:53;102153.97;;;3.09;100.00
19236;BME280;9752;54.270;12.470;2023-12-14T08:47:55;102169.19;;;3.07;100.00
19236;BME280;9752;54.270;12.470;2023-12-14T08:52:56;102187.47;;;3.10;100.00
19236;BME280;9752;54.270;12.470;2023-12-14T08:58:00;102200.63;;;3.13;100.00
19236;BME280;9752;54.270;12.470;2023-12-14T09:03:02;102209.66;;;3.03;100.00
19236;BME280;9752;54.270;12.470;2023-12-14T09:08:03;102246.25;;;3.09;100.00
19236;BME280;9752;54.270;12.470;2023-12-14T09:13:07;102251.22;;;3.07;100.00
19236;BME280;9752;54.270;12.470;2023-12-14T09:18:08;102268.19;;;3.14;100.00
19236;BME280;9752;54.270;12.470;2023-12-14T09:23:10;102281.19;;;3.16;100.00
19236;BME280;9752;54.270;12.470;2023-12-14T09:28:13;102282.50;;;3.12;100.00
19236;BME280;9752;54.270;12.470;2023-12-14T09:33:15;102297.28;;;3.15;100.00
19236;BME280;9752;54.270;12.470;2023-12-14T09:38:16;102292.34;;;3.16;100.00
19236;BME280;9752;54.270;12.470;2023-12-14T09:43:21;102303.28;;;3.22;100.00
19236;BME280;9752;54.270;12.470;2023-12-14T09:48:24;102306.63;;;3.21;100.00
19236;BME280;9752;54.270;12.470;2023-12-14T09:53:26;102311.94;;;3.23;100.00
19236;BME280;9752;54.270;12.470;2023-12-14T09:58:31;102315.03;;;3.20;100.00
19236;BME280;9752;54.270;12.470;2023-12-14T10:03:33;102320.69;;;3.25;100.00
19236;BME280;9752;54.270;12.470;2023-12-14T10:08:34;102330.97;;;3.25;100.00
19236;BME280;9752;54.270;12.470;2023-12-14T10:13:38;102336.19;;;3.33;100.00
19236;BME280;9752;54.270;12.470;2023-12-14T10:18:40;102345.34;;;3.39;100.00
19236;BME280;9752;54.270;12.470;2023-12-14T10:23:42;102352.63;;;3.43;100.00
19236;BME280;9752;54.270;12.470;2023-12-14T10:28:48;102355.03;;;3.41;100.00
19236;BME280;9752;54.270;12.470;2023-12-14T10:33:49;102352.84;;;3.37;100.00
19236;BME280;9752;54.270;12.470;2023-12-14T10:38:52;102362.38;;;3.38;100.00
19236;BME280;9752;54.270;12.470;2023-12-14T10:43:56;102370.63;;;3.36;100.00
19236;BME280;9752;54.270;12.470;2023-12-14T10:49:00;102373.03;;;3.34;100.00
19236;BME280;9752;54.270;12.470;2023-12-14T10:54:02;102375.75;;;3.36;100.00
19236;BME280;9752;54.270;12.470;2023-12-14T10:59:06;102379.41;;;3.38;100.00
19236;BME280;9752;54.270;12.470;2023-12-14T11:04:08;102385.47;;;3.38;100.00
19236;BME280;9752;54.270;12.470;2023-12-14T11:09:13;102388.03;;;3.38;100.00
19236;BME280;9752;54.270;12.470;2023-12-14T11:14:20;102408.19;;;3.35;100.00
19236;BME280;9752;54.270;12.470;2023-12-14T11:19:28;102414.22;;;3.36;100.00
19236;BME280;9752;54.270;12.470;2023-12-14T11:24:30;102417.56;;;3.27;100.00
19236;BME280;9752;54.270;12.470;2023-12-14T11:29:33;102427.63;;;3.33;100.00
19236;BME280;9752;54.270;12.470;2023-12-14T11:34:38;102432.19;;;3.36;100.00
19236;BME280;9752;54.270;12.470;2023-12-14T11:39:40;102434.59;;;3.34;100.00
19236;BME280;9752;54.270;12.470;2023-12-14T11:44:44;102439.31;;;3.45;100.00
19236;BME280;9752;54.270;12.470;2023-12-14T11:49:46;102451.94;;;3.44;100.00
19236;BME280;9752;54.270;12.470;2023-12-14T11:54:48;102457.41;;;3.47;100.00
19236;BME280;9752;54.270;12.470;2023-12-14T11:59:51;102458.69;;;3.50;100.00
19236;BME280;9752;54.270;12.470;2023-12-14T12:04:53;102471.03;;;3.39;100.00
19236;BME280;9752;54.270;12.470;2023-12-14T12:09:55;102475.06;;;3.29;100.00
19236;BME280;9752;54.270;12.470;2023-12-14T12:14:58;102478.53;;;3.30;100.00
19236;BME280;9752;54.270;12.470;2023-12-14T12:19:59;102482.97;;;3.31;100.00
19236;BME280;9752;54.270;12.470;2023-12-14T12:25:01;102485.53;;;3.31;100.00
19236;BME280;9752;54.270;12.470;2023-12-14T12:30:05;102486.81;;;3.20;100.00
19236;BME280;9752;54.270;12.470;2023-12-14T12:35:07;102490.41;;;2.85;100.00
19236;BME280;9752;54.270;12.470;2023-12-14T12:40:10;102496.25;;;2.77;100.00
19236;BME280;9752;54.270;12.470;2023-12-14T12:45:14;102497.19;;;2.63;100.00
19236;BME280;9752;54.270;12.470;2023-12-14T12:50:16;102503.38;;;2.65;100.00
19236;BME280;9752;54.270;12.470;2023-12-14T12:55:18;102506.88;;;2.58;100.00
19236;BME280;9752;54.270;12.470;2023-12-14T13:00:21;102521.13;;;2.56;100.00
19236;BME280;9752;54.270;12.470;2023-12-14T13:05:23;102527.00;;;2.55;100.00
19236;BME280;9752;54.270;12.470;2023-12-14T13:10:25;102529.03;;;2.50;100.00
19236;BME280;9752;54.270;12.470;2023-12-14T13:15:29;102528.63;;;2.47;100.00
19236;BME280;9752;54.270;12.470;2023-12-14T13:20:31;102539.28;;;2.50;100.00
19236;BME280;9752;54.270;12.470;2023-12-14T13:25:33;102538.69;;;2.46;100.00
19236;BME280;9752;54.270;12.470;2023-12-14T13:30:36;102547.84;;;2.44;100.00
19236;BME280;9752;54.270;12.470;2023-12-14T13:35:38;102554.06;;;2.53;100.00
19236;BME280;9752;54.270;12.470;2023-12-14T13:40:39;102556.25;;;2.50;100.00
19236;BME280;9752;54.270;12.470;2023-12-14T13:45:42;102552.97;;;2.51;100.00
19236;BME280;9752;54.270;12.470;2023-12-14T13:50:44;102562.09;;;2.42;100.00
19236;BME280;9752;54.270;12.470;2023-12-14T13:55:46;102559.19;;;2.46;100.00
19236;BME280;9752;54.270;12.470;2023-12-14T14:00:50;102567.63;;;2.45;100.00
19236;BME280;9752;54.270;12.470;2023-12-14T14:05:52;102577.50;;;2.49;100.00
19236;BME280;9752;54.270;12.470;2023-12-14T14:10:53;102589.75;;;2.59;100.00
19236;BME280;9752;54.270;12.470;2023-12-14T14:15:56;102597.63;;;2.67;100.00
19236;BME280;9752;54.270;12.470;2023-12-14T14:20:58;102603.31;;;2.65;100.00
19236;BME280;9752;54.270;12.470;2023-12-14T14:26:01;102614.81;;;2.61;100.00
19236;BME280;9752;54.270;12.470;2023-12-14T14:31:04;102624.88;;;2.60;100.00
19236;BME280;9752;54.270;12.470;2023-12-14T14:36:06;102635.88;;;2.59;100.00
19236;BME280;9752;54.270;12.470;2023-12-14T14:41:08;102640.81;;;2.57;100.00
19236;BME280;9752;54.270;12.470;2023-12-14T14:46:11;102639.91;;;2.64;100.00
19236;BME280;9752;54.270;12.470;2023-12-14T14:51:13;102634.97;;;2.58;100.00
19236;BME280;9752;54.270;12.470;2023-12-14T14:56:15;102645.38;;;2.60;100.00
19236;BME280;9752;54.270;12.470;2023-12-14T15:01:18;102652.72;;;2.64;100.00
19236;BME280;9752;54.270;12.470;2023-12-14T15:06:20;102659.84;;;2.66;100.00
19236;BME280;9752;54.270;12.470;2023-12-14T15:11:23;102650.88;;;2.63;100.00
19236;BME280;9752;54.270;12.470;2023-12-14T15:16:26;102656.91;;;2.63;100.00
19236;BME280;9752;54.270;12.470;2023-12-14T15:21:27;102663.13;;;2.65;100.00
19236;BME280;9752;54.270;12.470;2023-12-14T15:26:29;102669.91;;;2.65;100.00
19236;BME280;9752;54.270;12.470;2023-12-14T15:31:34;102667.53;;;2.66;100.00
19236;BME280;9752;54.270;12.470;2023-12-14T15:36:36;102663.16;;;2.58;100.00
19236;BME280;9752;54.270;12.470;2023-12-14T15:41:38;102663.88;;;2.64;100.00
19236;BME280;9752;54.270;12.470;2023-12-14T15:46:41;102675.94;;;2.65;100.00
19236;BME280;9752;54.270;12.470;2023-12-14T15:51:43;102665.34;;;2.62;100.00
19236;BME280;9752;54.270;12.470;2023-12-14T15:56:44;102662.41;;;2.59;100.00
19236;BME280;9752;54.270;12.470;2023-12-14T16:01:47;102672.84;;;2.61;100.00
19236;BME280;9752;54.270;12.470;2023-12-14T16:06:49;102686.34;;;2.60;100.00
19236;BME280;9752;54.270;12.470;2023-12-14T16:11:51;102697.72;;;2.62;100.00
19236;BME280;9752;54.270;12.470;2023-12-14T16:16:54;102700.28;;;2.54;100.00
19236;BME280;9752;54.270;12.470;2023-12-14T16:21:55;102712.16;;;2.61;100.00
19236;BME280;9752;54.270;12.470;2023-12-14T16:26:57;102711.47;;;2.62;100.00
19236;BME280;9752;54.270;12.470;2023-12-14T16:32:00;102720.97;;;2.63;100.00
19236;BME280;9752;54.270;12.470;2023-12-14T16:37:02;102721.72;;;2.62;100.00
19236;BME280;9752;54.270;12.470;2023-12-14T16:42:04;102712.88;;;2.53;100.00
19236;BME280;9752;54.270;12.470;2023-12-14T16:47:07;102711.22;;;2.53;100.00
19236;BME280;9752;54.270;12.470;2023-12-14T16:52:09;102724.63;;;2.58;100.00
19236;BME280;9752;54.270;12.470;2023-12-14T16:57:11;102713.78;;;2.53;100.00
19236;BME280;9752;54.270;12.470;2023-12-14T17:02:14;102723.50;;;2.49;100.00
19236;BME280;9752;54.270;12.470;2023-12-14T17:07:16;102736.09;;;2.47;100.00
19236;BME280;9752;54.270;12.470;2023-12-14T17:12:18;102753.28;;;2.48;100.00
19236;BME280;9752;54.270;12.470;2023-12-14T17:17:22;102758.56;;;2.43;100.00
19236;BME280;9752;54.270;12.470;2023-12-14T17:22:24;102774.66;;;2.42;100.00
19236;BME280;9752;54.270;12.470;2023-12-14T17:27:26;102782.56;;;2.43;100.00
19236;BME280;9752;54.270;12.470;2023-12-14T17:32:29;102791.84;;;2.36;100.00
19236;BME280;9752;54.270;12.470;2023-12-14T17:37:30;102784.81;;;2.20;100.00
19236;BME280;9752;54.270;12.470;2023-12-14T17:42:32;102790.97;;;2.15;100.00
19236;BME280;9752;54.270;12.470;2023-12-14T17:47:36;102787.13;;;2.11;100.00
19236;BME280;9752;54.270;12.470;2023-12-14T17:52:39;102789.06;;;2.00;100.00
19236;BME280;9752;54.270;12.470;2023-12-14T17:57:40;102810.22;;;1.99;100.00
19236;BME280;9752;54.270;12.470;2023-12-14T18:02:44;102825.66;;;2.06;100.00
19236;BME280;9752;54.270;12.470;2023-12-14T18:07:45;102837.88;;;2.01;100.00
19236;BME280;9752;54.270;12.470;2023-12-14T18:12:49;102848.63;;;1.99;100.00
19236;BME280;9752;54.270;12.470;2023-12-14T18:17:52;102860.19;;;2.02;100.00
19236;BME280;9752;54.270;12.470;2023-12-14T18:22:54;102866.19;;;2.03;100.00
19236;BME280;9752;54.270;12.470;2023-12-14T18:27:56;102877.53;;;1.98;100.00
19236;BME280;9752;54.270;12.470;2023-12-14T18:33:03;102876.53;;;1.90;100.00
19236;BME280;9752;54.270;12.470;2023-12-14T18:38:05;102888.03;;;1.86;100.00
19236;BME280;9752;54.270;12.470;2023-12-14T18:43:07;102884.97;;;1.76;100.00
19236;BME280;9752;54.270;12.470;2023-12-14T18:48:11;102893.09;;;1.66;100.00
19236;BME280;9752;54.270;12.470;2023-12-14T18:53:13;102903.88;;;1.64;100.00
19236;BME280;9752;54.270;12.470;2023-12-14T18:58:15;102898.91;;;1.45;100.00
19236;BME280;9752;54.270;12.470;2023-12-14T19:03:18;102904.69;;;1.37;100.00
19236;BME280;9752;54.270;12.470;2023-12-14T19:08:20;102910.13;;;1.33;100.00
19236;BME280;9752;54.270;12.470;2023-12-14T19:13:21;102916.13;;;1.33;100.00
19236;BME280;9752;54.270;12.470;2023-12-14T19:18:24;102924.31;;;1.31;100.00
19236;BME280;9752;54.270;12.470;2023-12-14T19:23:26;102928.41;;;1.23;100.00
19236;BME280;9752;54.270;12.470;2023-12-14T19:28:29;102926.69;;;1.16;100.00
19236;BME280;9752;54.270;12.470;2023-12-14T19:33:32;102926.50;;;1.02;100.00
19236;BME280;9752;54.270;12.470;2023-12-14T19:38:33;102937.97;;;0.86;100.00
19236;BME280;9752;54.270;12.470;2023-12-14T19:43:35;102952.47;;;0.80;100.00
19236;BME280;9752;54.270;12.470;2023-12-14T19:48:38;102949.31;;;0.75;100.00
19236;BME280;9752;54.270;12.470;2023-12-14T19:53:40;102965.97;;;0.78;100.00
19236;BME280;9752;54.270;12.470;2023-12-14T19:58:41;102977.63;;;0.76;100.00
19236;BME280;9752;54.270;12.470;2023-12-14T20:03:45;102994.75;;;0.77;100.00
19236;BME280;9752;54.270;12.470;2023-12-14T20:08:46;102994.69;;;0.70;100.00
19236;BME280;9752;54.270;12.470;2023-12-14T20:13:48;102992.78;;;0.56;100.00
19236;BME280;9752;54.270;12.470;2023-12-14T20:18:51;102997.50;;;0.53;100.00
19236;BME280;9752;54.270;12.470;2023-12-14T20:23:53;103014.28;;;0.33;100.00
19236;BME280;9752;54.270;12.470;2023-12-14T20:28:55;103030.28;;;0.50;100.00
19236;BME280;9752;54.270;12.470;2023-12-14T20:33:58;103041.09;;;0.42;100.00
19236;BME280;9752;54.270;12.470;2023-12-14T20:39:00;103048.09;;;0.37;100.00
19236;BME280;9752;54.270;12.470;2023-12-14T20:44:04;103050.56;;;0.12;100.00
19236;BME280;9752;54.270;12.470;2023-12-14T20:49:07;103051.13;;;-0.15;100.00
19236;BME280;9752;54.270;12.470;2023-12-14T20:54:08;103058.34;;;-0.18;100.00
19236;BME280;9752;54.270;12.470;2023-12-14T20:59:10;103066.69;;;-0.19;100.00
19236;BME280;9752;54.270;12.470;2023-12-14T21:04:13;103066.25;;;-0.41;100.00
19236;BME280;9752;54.270;12.470;2023-12-14T21:09:15;103065.75;;;-0.56;100.00
19236;BME280;9752;54.270;12.470;2023-12-14T21:14:16;103062.91;;;-0.52;100.00
19236;BME280;9752;54.270;12.470;2023-12-14T21:19:20;103090.00;;;-0.29;100.00
19236;BME280;9752;54.270;12.470;2023-12-14T21:24:21;103123.28;;;0.03;100.00
19236;BME280;9752;54.270;12.470;2023-12-14T21:29:25;103135.91;;;0.14;100.00
19236;BME280;9752;54.270;12.470;2023-12-14T21:34:28;103152.22;;;0.27;100.00
19236;BME280;9752;54.270;12.470;2023-12-14T21:39:29;103164.53;;;0.43;100.00
19236;BME280;9752;54.270;12.470;2023-12-14T21:44:31;103172.34;;;0.50;100.00
19236;BME280;9752;54.270;12.470;2023-12-14T21:49:35;103173.69;;;0.53;100.00
19236;BME280;9752;54.270;12.470;2023-12-14T21:54:36;103197.84;;;0.68;100.00
19236;BME280;9752;54.270;12.470;2023-12-14T21:59:38;103203.31;;;0.77;100.00
19236;BME280;9752;54.270;12.470;2023-12-14T22:04:41;103219.31;;;0.82;100.00
19236;BME280;9752;54.270;12.470;2023-12-14T22:09:42;103218.28;;;0.87;100.00
19236;BME280;9752;54.270;12.470;2023-12-14T22:14:44;103231.91;;;0.93;100.00
19236;BME280;9752;54.270;12.470;2023-12-14T22:19:47;103248.56;;;0.96;100.00
19236;BME280;9752;54.270;12.470;2023-12-14T22:24:49;103251.34;;;0.98;100.00
19236;BME280;9752;54.270;12.470;2023-12-14T22:29:50;103254.19;;;0.94;100.00
19236;BME280;9752;54.270;12.470;2023-12-14T22:34:53;103248.25;;;0.88;100.00
19236;BME280;9752;54.270;12.470;2023-12-14T22:39:55;103252.06;;;0.78;100.00
19236;BME280;9752;54.270;12.470;2023-12-14T22:44:57;103248.47;;;0.71;100.00
19236;BME280;9752;54.270;12.470;2023-12-14T22:50:00;103251.38;;;0.61;100.00
19236;BME280;9752;54.270;12.470;2023-12-14T22:55:02;103259.31;;;0.57;100.00
19236;BME280;9752;54.270;12.470;2023-12-14T23:00:06;103258.03;;;0.48;100.00
19236;BME280;9752;54.270;12.470;2023-12-14T23:05:13;103251.75;;;0.27;100.00
19236;BME280;9752;54.270;12.470;2023-12-14T23:10:15;103258.63;;;0.15;100.00
19236;BME280;9752;54.270;12.470;2023-12-14T23:15:17;103270.47;;;0.09;100.00
19236;BME280;9752;54.270;12.470;2023-12-14T23:20:20;103282.28;;;0.14;100.00
19236;BME280;9752;54.270;12.470;2023-12-14T23:25:22;103294.44;;;0.04;100.00
19236;BME280;9752;54.270;12.470;2023-12-14T23:30:24;103286.38;;;-0.05;100.00
19236;BME280;9752;54.270;12.470;2023-12-14T23:35:28;103293.41;;;-0.09;100.00
19236;BME280;9752;54.270;12.470;2023-12-14T23:40:30;103298.69;;;-0.08;100.00
19236;BME280;9752;54.270;12.470;2023-12-14T23:45:32;103308.81;;;0.04;100.00
19236;BME280;9752;54.270;12.470;2023-12-14T23:50:35;103320.50;;;0.20;100.00
19236;BME280;9752;54.270;12.470;2023-12-14T23:55:37;103344.00;;;0.36;100.00
